Blue Point, Illinois
Current Conditions -  °F | °C
As of 10:55 AM on Tuesday 27 Jan 2015 (Local Time) from K1H2 Reporting Station
Haze Haze  
Wind Chill: 26°   Ceiling: 1000
Heat Index: 34°   Visibility: 4mi
Dew Point: 29°   Wind: 9mph
Humidity: 84%   Direction: 340°NNW
Pressure: 30.16"   Gusts: NA
Location:  39.1183°N, 88.6059°W
Report Text: K1H2 271655Z AUTO 34008KT 4SM HZ OVC010 01/M01 A3016 RMK AO2 T00091015
Loading
Personal Weather Stations






























Interactive Weather Map New forecast layout! Learn more

10-Day Weather Forecast

Advertisements
Track Severe Weather on mobile